Time;durP1;ratioP1;P1;durP2;ratioP2;P2;SDS_P1;SDS_P2;PMS_P1;PMS_P2;Temp;Humidity;BMP_temperature;BMP_pressure;BME280_temperature;BME280_humidity;BME280_pressure;Samples;Min_cycle;Max_cycle;Signal;HPM_P1;HPM_P2
2021/10/16 00:01:14;;;;;;;2.78;1.63;;;18.30;63.70;;;;;;5075131;28;20198;-71
2021/10/16 00:03:40;;;;;;;3.10;1.80;;;18.30;63.70;;;;;;5074302;28;20213;-71
2021/10/16 00:06:06;;;;;;;1.85;1.60;;;18.30;63.70;;;;;;5074510;28;20208;-71
2021/10/16 00:08:31;;;;;;;5.15;2.22;;;18.30;63.60;;;;;;5074956;28;20559;-76
2021/10/16 00:10:57;;;;;;;1.98;1.65;;;18.30;63.70;;;;;;5073770;28;20213;-73
2021/10/16 00:13:22;;;;;;;2.25;1.60;;;18.30;63.70;;;;;;5074853;28;20264;-74
2021/10/16 00:15:48;;;;;;;4.05;1.98;;;18.20;63.50;;;;;;5074273;28;20540;-72
2021/10/16 00:18:14;;;;;;;1.95;1.75;;;18.20;63.60;;;;;;5073986;28;20584;-73
2021/10/16 00:20:40;;;;;;;3.47;1.98;;;18.20;63.50;;;;;;5074691;28;20220;-73
2021/10/16 00:23:06;;;;;;;3.35;1.88;;;18.20;63.40;;;;;;5074153;28;20214;-71
2021/10/16 00:25:31;;;;;;;2.05;1.70;;;18.20;63.50;;;;;;5073447;28;20205;-70
2021/10/16 00:27:57;;;;;;;3.05;1.67;;;18.20;63.50;;;;;;5074035;28;20208;-68
2021/10/16 00:30:22;;;;;;;2.88;1.60;;;18.20;63.30;;;;;;5073714;28;20257;-72
2021/10/16 00:32:48;;;;;;;3.15;2.10;;;18.20;63.30;;;;;;5073879;28;20174;-73
2021/10/16 00:35:13;;;;;;;2.70;2.17;;;18.20;63.30;;;;;;5074091;28;20178;-73
2021/10/16 00:37:39;;;;;;;2.55;1.63;;;18.20;63.30;;;;;;5073429;28;20175;-73
2021/10/16 00:40:05;;;;;;;2.28;1.55;;;18.20;63.30;;;;;;5074024;28;20174;-71
2021/10/16 00:42:31;;;;;;;2.92;1.60;;;18.20;63.30;;;;;;5074075;28;20214;-71
2021/10/16 00:45:01;;;;;;;3.20;1.90;;;18.20;63.30;;;;;;5073212;28;20215;-70
2021/10/16 00:47:27;;;;;;;2.97;1.83;;;18.10;63.30;;;;;;5074249;28;20163;-71
2021/10/16 00:49:52;;;;;;;2.53;1.80;;;18.10;63.30;;;;;;5069437;28;20641;-73
2021/10/16 00:52:18;;;;;;;3.40;1.65;;;18.10;63.40;;;;;;5053284;28;20175;-73
2021/10/16 00:54:43;;;;;;;2.60;1.48;;;18.10;63.20;;;;;;5069473;28;20185;-73
2021/10/16 00:57:10;;;;;;;2.83;1.77;;;18.10;63.30;;;;;;5073358;28;20174;-71
2021/10/16 00:59:36;;;;;;;3.38;1.58;;;18.10;63.20;;;;;;5055650;28;20563;-70
2021/10/16 01:02:01;;;;;;;2.67;1.77;;;18.10;64.10;;;;;;5073358;28;20645;-68
2021/10/16 01:04:27;;;;;;;2.85;1.63;;;18.10;63.20;;;;;;5073412;28;20228;-71
2021/10/16 01:06:52;;;;;;;2.30;1.67;;;18.10;63.10;;;;;;5072452;28;20502;-74
2021/10/16 01:09:18;;;;;;;2.47;1.70;;;18.10;63.10;;;;;;5073409;28;20170;-72
2021/10/16 01:11:53;;;;;;;3.05;1.80;;;18.10;63.10;;;;;;5073421;28;20170;-75
2021/10/16 01:14:19;;;;;;;3.75;2.08;;;18.00;63.10;;;;;;5072866;28;20181;-75
2021/10/16 01:16:46;;;;;;;2.65;1.90;;;18.10;63.10;;;;;;5073512;28;20174;-75
2021/10/16 01:19:13;;;;;;;3.30;1.85;;;18.00;63.00;;;;;;5073645;28;20187;-75
2021/10/16 01:21:45;;;;;;;2.53;1.63;;;18.10;63.10;;;;;;5072915;28;20222;-72
2021/10/16 01:24:12;;;;;;;3.55;1.90;;;18.00;62.90;;;;;;5073162;28;20327;-71
2021/10/16 01:26:39;;;;;;;3.47;1.88;;;18.00;62.90;;;;;;5072539;28;20226;-71
2021/10/16 01:29:05;;;;;;;3.00;1.73;;;18.00;63.00;;;;;;5070730;28;20186;-71
2021/10/16 01:31:30;;;;;;;3.15;2.00;;;18.00;63.00;;;;;;5072113;28;20649;-72
2021/10/16 01:33:56;;;;;;;2.53;1.52;;;18.00;63.00;;;;;;5072074;28;20177;-72
2021/10/16 01:36:21;;;;;;;3.17;1.80;;;18.00;62.90;;;;;;5073002;28;20261;-73
2021/10/16 01:38:47;;;;;;;2.38;2.17;;;18.00;62.90;;;;;;5072901;28;20577;-71
2021/10/16 01:41:13;;;;;;;2.83;2.03;;;18.00;62.90;;;;;;5072181;28;20171;-72
2021/10/16 01:43:38;;;;;;;2.88;1.88;;;18.00;62.90;;;;;;5072942;28;20673;-71
2021/10/16 01:46:04;;;;;;;3.08;2.03;;;17.90;62.80;;;;;;5071551;28;20182;-71
2021/10/16 01:48:29;;;;;;;2.38;1.65;;;18.00;62.90;;;;;;5072259;28;20174;-72
2021/10/16 01:50:55;;;;;;;2.40;1.70;;;17.90;62.80;;;;;;5059779;28;20174;-72
2021/10/16 01:53:20;;;;;;;4.55;1.90;;;18.00;62.80;;;;;;5058225;28;20189;-73
2021/10/16 01:55:46;;;;;;;2.13;1.63;;;17.90;62.80;;;;;;5071993;28;20174;-72
2021/10/16 01:58:15;;;;;;;3.00;1.95;;;17.90;62.90;;;;;;5072548;28;20512;-69
2021/10/16 02:00:44;;;;;;;2.47;1.90;;;17.90;62.90;;;;;;5072992;28;20261;-71
2021/10/16 02:03:10;;;;;;;2.97;1.65;;;17.90;62.80;;;;;;5071766;28;20206;-69
2021/10/16 02:05:43;;;;;;;4.55;2.13;;;17.90;62.90;;;;;;5072697;28;20181;-71
2021/10/16 02:08:09;;;;;;;1.98;1.50;;;17.90;62.90;;;;;;5071579;28;20185;-73
2021/10/16 02:10:35;;;;;;;2.35;1.70;;;17.90;62.80;;;;;;5072220;28;20209;-73
2021/10/16 02:13:00;;;;;;;3.28;2.03;;;17.90;62.80;;;;;;5072583;28;20193;-74
2021/10/16 02:15:26;;;;;;;3.15;1.80;;;17.90;62.80;;;;;;5072640;28;20559;-71
2021/10/16 02:17:51;;;;;;;2.35;1.67;;;17.90;62.80;;;;;;5075595;28;20178;-73
2021/10/16 02:20:17;;;;;;;2.40;1.48;;;17.90;62.90;;;;;;5076764;28;20192;-74
2021/10/16 02:22:43;;;;;;;2.80;1.85;;;17.90;62.80;;;;;;5076537;28;20228;-71
2021/10/16 02:25:08;;;;;;;2.95;2.00;;;17.90;62.80;;;;;;5075761;28;20175;-70
2021/10/16 02:27:34;;;;;;;3.03;1.55;;;17.90;62.80;;;;;;5076435;28;20275;-67
2021/10/16 02:29:59;;;;;;;2.58;1.73;;;17.80;62.80;;;;;;5075556;28;20174;-70
2021/10/16 02:32:25;;;;;;;2.80;1.75;;;17.80;62.70;;;;;;5076652;28;20205;-72
2021/10/16 02:34:50;;;;;;;3.60;1.80;;;17.80;62.70;;;;;;5076332;28;20179;-73
2021/10/16 02:37:16;;;;;;;1.50;1.27;;;17.80;62.70;;;;;;5075546;28;20707;-72
2021/10/16 02:39:41;;;;;;;2.53;1.58;;;17.80;62.70;;;;;;5076547;28;20178;-71
2021/10/16 02:42:07;;;;;;;2.00;1.60;;;17.80;62.70;;;;;;5076149;28;20183;-72
2021/10/16 02:44:32;;;;;;;2.40;2.00;;;17.80;62.70;;;;;;5075715;28;20187;-70
2021/10/16 02:46:58;;;;;;;1.52;1.40;;;17.80;62.70;;;;;;5076106;28;20532;-71
2021/10/16 02:49:23;;;;;;;3.63;1.40;;;17.80;62.70;;;;;;5076079;28;20523;-73
2021/10/16 02:51:49;;;;;;;3.35;1.63;;;17.80;62.70;;;;;;5035340;28;20163;-72
2021/10/16 02:54:14;;;;;;;2.97;1.80;;;17.80;62.60;;;;;;5061413;28;20210;-73
2021/10/16 02:56:40;;;;;;;2.38;1.60;;;17.80;62.60;;;;;;5076222;28;20189;-69
2021/10/16 02:59:06;;;;;;;3.38;1.92;;;17.80;62.70;;;;;;5075091;28;20178;-71
2021/10/16 03:01:31;;;;;;;2.42;1.75;;;17.70;62.60;;;;;;5075894;28;20574;-69
2021/10/16 03:03:56;;;;;;;1.73;1.52;;;17.70;62.60;;;;;;5075457;28;20214;-70
2021/10/16 03:06:22;;;;;;;1.85;1.50;;;17.80;62.70;;;;;;5074981;28;20186;-71
2021/10/16 03:08:48;;;;;;;2.58;1.77;;;17.70;62.60;;;;;;5075379;28;20177;-72
2021/10/16 03:11:13;;;;;;;3.03;1.90;;;17.70;62.60;;;;;;5075950;28;20221;-73
2021/10/16 03:13:39;;;;;;;2.22;1.50;;;17.70;62.60;;;;;;5075094;28;20178;-70
2021/10/16 03:16:04;;;;;;;2.42;1.70;;;17.70;62.50;;;;;;5075473;28;20175;-73
2021/10/16 03:18:30;;;;;;;2.50;1.95;;;17.70;62.60;;;;;;5075653;28;20178;-73
2021/10/16 03:20:55;;;;;;;2.50;1.50;;;17.70;62.50;;;;;;5074718;28;20679;-72
2021/10/16 03:23:21;;;;;;;1.98;1.58;;;17.70;62.50;;;;;;5075384;28;20249;-72
2021/10/16 03:25:46;;;;;;;2.30;1.80;;;17.70;62.60;;;;;;5075490;28;20696;-68
2021/10/16 03:28:12;;;;;;;3.20;1.58;;;17.70;62.50;;;;;;5074177;28;20229;-70
2021/10/16 03:30:38;;;;;;;3.67;1.75;;;17.70;62.50;;;;;;5075720;28;20739;-72
2021/10/16 03:33:04;;;;;;;2.83;1.92;;;17.70;62.60;;;;;;5075277;28;20197;-73
2021/10/16 03:35:29;;;;;;;3.95;1.70;;;17.70;62.60;;;;;;5074575;28;20170;-73
2021/10/16 03:37:55;;;;;;;2.83;1.80;;;17.60;62.50;;;;;;5075088;28;20652;-71
2021/10/16 03:40:20;;;;;;;2.70;1.70;;;17.70;62.60;;;;;;5074520;28;20182;-73
2021/10/16 03:42:46;;;;;;;2.67;1.70;;;17.60;62.40;;;;;;5075292;28;20570;-70
2021/10/16 03:45:11;;;;;;;4.32;2.45;;;17.60;62.40;;;;;;5075097;28;20663;-72
2021/10/16 03:47:37;;;;;;;1.48;1.38;;;17.70;62.60;;;;;;5074551;28;20625;-72
2021/10/16 03:50:03;;;;;;;3.72;1.80;;;17.60;62.50;;;;;;5069311;28;20226;-72
2021/10/16 03:52:28;;;;;;;1.77;1.35;;;17.70;62.60;;;;;;5054957;28;20775;-73
2021/10/16 03:54:54;;;;;;;2.63;2.05;;;17.60;62.50;;;;;;5072099;28;20178;-71
2021/10/16 03:57:19;;;;;;;2.92;2.05;;;17.60;62.50;;;;;;5075064;28;20177;-70
2021/10/16 03:59:45;;;;;;;2.08;1.80;;;17.60;62.50;;;;;;5074947;28;20183;-70
2021/10/16 04:02:10;;;;;;;1.55;1.45;;;17.60;62.50;;;;;;5073856;28;20170;-69
2021/10/16 04:04:36;;;;;;;3.05;1.60;;;17.60;62.50;;;;;;5074690;28;20175;-71
2021/10/16 04:07:02;;;;;;;2.65;1.77;;;17.60;62.60;;;;;;5074621;28;20210;-71
2021/10/16 04:09:27;;;;;;;1.48;1.35;;;17.60;62.50;;;;;;5074130;28;20178;-73
2021/10/16 04:11:53;;;;;;;1.58;1.40;;;17.60;62.50;;;;;;5074402;28;20171;-74
2021/10/16 04:14:19;;;;;;;2.30;1.50;;;17.60;62.50;;;;;;5074642;28;20645;-72
2021/10/16 04:16:44;;;;;;;2.92;1.70;;;17.60;62.50;;;;;;5073868;28;20220;-75
2021/10/16 04:19:10;;;;;;;1.83;1.40;;;17.60;62.60;;;;;;5074376;28;20174;-73
2021/10/16 04:21:35;;;;;;;1.98;1.60;;;17.50;62.50;;;;;;5074474;28;20179;-72
2021/10/16 04:24:01;;;;;;;2.08;1.48;;;17.60;62.60;;;;;;5073452;28;20695;-69
2021/10/16 04:26:27;;;;;;;2.30;1.50;;;17.50;62.60;;;;;;5074537;28;20218;-69
2021/10/16 04:28:53;;;;;;;2.72;1.45;;;17.60;62.60;;;;;;5074068;28;20178;-70
2021/10/16 04:31:18;;;;;;;2.15;1.50;;;17.60;62.60;;;;;;5073466;28;20240;-69
2021/10/16 04:33:44;;;;;;;2.33;1.38;;;17.50;62.60;;;;;;5074059;28;20182;-72
2021/10/16 04:36:09;;;;;;;1.92;1.33;;;17.50;62.60;;;;;;5073957;28;20177;-71
2021/10/16 04:38:35;;;;;;;2.95;1.95;;;17.50;62.60;;;;;;5072908;28;20175;-71
2021/10/16 04:41:01;;;;;;;1.40;1.30;;;17.50;62.80;;;;;;5073898;28;20166;-71
2021/10/16 04:43:26;;;;;;;1.92;1.55;;;17.50;62.60;;;;;;5072852;28;20359;-70
2021/10/16 04:45:52;;;;;;;1.98;1.42;;;17.50;62.60;;;;;;5071763;28;20663;-71
2021/10/16 04:48:17;;;;;;;2.45;1.80;;;17.50;62.70;;;;;;5073932;28;20174;-73
2021/10/16 04:50:44;;;;;;;1.95;1.55;;;17.50;62.70;;;;;;5062443;28;20173;-73
2021/10/16 04:53:10;;;;;;;2.17;1.58;;;17.50;62.60;;;;;;5056280;28;20170;-74
2021/10/16 04:55:35;;;;;;;3.15;1.77;;;17.50;62.70;;;;;;5073898;28;20174;-70
2021/10/16 04:58:01;;;;;;;1.60;1.50;;;17.50;62.60;;;;;;5072751;28;20182;-70
2021/10/16 05:00:26;;;;;;;1.90;1.48;;;17.50;62.60;;;;;;5073716;28;20210;-68
2021/10/16 05:02:52;;;;;;;2.35;1.40;;;17.50;62.70;;;;;;5073192;28;20221;-69
2021/10/16 05:05:17;;;;;;;2.08;1.60;;;17.50;62.70;;;;;;5073096;28;20508;-70
2021/10/16 05:07:43;;;;;;;1.75;1.55;;;17.50;62.80;;;;;;5073744;28;20216;-70
2021/10/16 05:10:08;;;;;;;1.83;1.40;;;17.50;62.80;;;;;;5073247;28;20220;-73
2021/10/16 05:12:34;;;;;;;2.15;1.60;;;17.50;62.70;;;;;;5072692;28;20613;-72
2021/10/16 05:14:59;;;;;;;2.28;1.63;;;17.50;62.90;;;;;;5073077;28;20178;-73
2021/10/16 05:17:25;;;;;;;2.10;1.30;;;17.50;62.90;;;;;;5073284;28;20171;-73
2021/10/16 05:19:50;;;;;;;3.65;1.88;;;17.40;62.80;;;;;;5072293;28;20174;-72
2021/10/16 05:22:16;;;;;;;2.83;1.60;;;17.50;62.80;;;;;;5073153;28;20206;-71
2021/10/16 05:24:41;;;;;;;1.50;1.40;;;17.50;62.90;;;;;;5073319;28;20178;-70
2021/10/16 05:27:07;;;;;;;2.15;1.70;;;17.40;62.90;;;;;;5072019;28;20226;-71
2021/10/16 05:29:32;;;;;;;2.58;1.83;;;17.40;63.10;;;;;;5073446;28;20182;-68
2021/10/16 05:31:58;;;;;;;1.83;1.40;;;17.40;63.20;;;;;;5072841;28;20543;-71
2021/10/16 05:34:23;;;;;;;2.45;1.63;;;17.40;64.10;;;;;;5072650;28;20210;-75
2021/10/16 05:36:49;;;;;;;1.42;1.27;;;17.50;63.30;;;;;;5072762;28;20177;-72
2021/10/16 05:39:14;;;;;;;3.38;1.35;;;17.50;63.10;;;;;;5073333;28;20175;-72
2021/10/16 05:41:40;;;;;;;3.13;1.75;;;17.50;63.10;;;;;;5072490;28;20181;-70
2021/10/16 05:44:05;;;;;;;2.70;1.65;;;17.50;63.90;;;;;;5072815;28;20680;-71
2021/10/16 05:46:34;;;;;;;1.45;1.30;;;17.50;63.00;;;;;;5073105;28;20194;-71
2021/10/16 05:49:00;;;;;;;2.22;1.52;;;17.50;63.00;;;;;;5071861;28;20174;-72
2021/10/16 05:51:25;;;;;;;1.88;1.13;;;17.50;62.90;;;;;;5055863;28;20232;-72
2021/10/16 05:53:51;;;;;;;1.92;1.40;;;17.50;63.00;;;;;;5061921;28;20159;-70
2021/10/16 05:56:16;;;;;;;1.85;1.50;;;17.50;63.20;;;;;;5072389;28;20617;-70
2021/10/16 05:58:42;;;;;;;2.28;1.60;;;17.50;63.10;;;;;;5073092;28;20636;-69
2021/10/16 06:01:07;;;;;;;2.00;1.40;;;17.50;63.10;;;;;;5071940;28;20231;-69
2021/10/16 06:03:33;;;;;;;2.38;1.38;;;17.50;63.10;;;;;;5072529;28;20202;-68
2021/10/16 06:05:58;;;;;;;1.52;1.38;;;17.50;63.30;;;;;;5072652;28;20193;-68
2021/10/16 06:08:25;;;;;;;3.83;1.40;;;17.50;63.20;;;;;;5072124;28;20167;-71
2021/10/16 06:10:50;;;;;;;2.25;1.35;;;17.50;63.30;;;;;;5072410;28;20171;-70
2021/10/16 06:13:16;;;;;;;1.63;1.30;;;17.50;63.20;;;;;;5072697;28;20167;-71
2021/10/16 06:15:41;;;;;;;2.13;1.55;;;17.50;63.20;;;;;;5072034;28;20181;-73
2021/10/16 06:18:10;;;;;;;1.35;1.17;;;17.50;63.20;;;;;;5072477;28;20724;-70
2021/10/16 06:20:36;;;;;;;1.80;1.40;;;17.50;63.20;;;;;;5072813;28;20245;-71
2021/10/16 06:23:01;;;;;;;3.33;1.55;;;17.50;63.20;;;;;;5071507;28;20213;-67
2021/10/16 06:25:27;;;;;;;2.60;1.33;;;17.50;63.20;;;;;;5072501;28;20637;-67
2021/10/16 06:27:52;;;;;;;2.15;1.58;;;17.50;63.30;;;;;;5072267;28;20202;-67
2021/10/16 06:30:18;;;;;;;1.67;1.30;;;17.50;63.30;;;;;;5071760;28;20167;-67
2021/10/16 06:32:43;;;;;;;2.95;1.60;;;17.50;63.40;;;;;;5072452;28;20205;-70
2021/10/16 06:35:09;;;;;;;1.63;1.50;;;17.40;63.40;;;;;;5072304;28;20171;-69
2021/10/16 06:37:34;;;;;;;1.65;1.35;;;17.50;63.40;;;;;;5071853;28;20174;-71
2021/10/16 06:40:00;;;;;;;2.15;1.45;;;17.40;63.30;;;;;;5072108;28;20591;-71
2021/10/16 06:42:25;;;;;;;2.88;1.67;;;17.40;63.30;;;;;;5072225;28;20284;-70
2021/10/16 06:44:51;;;;;;;1.50;1.40;;;17.40;63.30;;;;;;5071305;28;20270;-71
2021/10/16 06:47:19;;;;;;;1.42;1.25;;;17.40;63.40;;;;;;5072375;28;20261;-71
2021/10/16 06:49:45;;;;;;;1.90;1.33;;;17.40;63.30;;;;;;5069486;28;20167;-73
2021/10/16 06:52:10;;;;;;;1.52;1.20;;;17.40;63.30;;;;;;5051287;28;20177;-73
2021/10/16 06:54:36;;;;;;;3.22;1.50;;;17.40;63.40;;;;;;5067889;28;20178;-72
2021/10/16 06:57:01;;;;;;;2.42;1.70;;;17.40;63.60;;;;;;5072102;28;20701;-72
2021/10/16 06:59:27;;;;;;;1.88;1.52;;;17.40;64.50;;;;;;5071676;28;20186;-68
2021/10/16 07:01:52;;;;;;;2.60;1.55;;;17.40;63.50;;;;;;5072258;28;20201;-69
2021/10/16 07:04:18;;;;;;;2.17;1.63;;;17.40;63.50;;;;;;5075245;28;20221;-71
2021/10/16 07:06:43;;;;;;;1.52;1.40;;;17.40;63.70;;;;;;5075815;28;20175;-71
2021/10/16 07:09:09;;;;;;;1.75;1.52;;;17.40;63.60;;;;;;5075581;28;20527;-76
2021/10/16 07:11:37;;;;;;;1.67;1.58;;;17.40;63.70;;;;;;5075236;28;20175;-72
2021/10/16 07:14:04;;;;;;;2.55;1.70;;;17.40;63.60;;;;;;5075482;28;20209;-74
2021/10/16 07:16:29;;;;;;;2.63;1.40;;;17.40;63.60;;;;;;5075666;28;20655;-76
2021/10/16 07:18:55;;;;;;;2.15;1.55;;;17.40;63.40;;;;;;5074895;28;20170;-73
2021/10/16 07:21:20;;;;;;;1.95;1.27;;;17.50;63.60;;;;;;5075683;28;20166;-71
2021/10/16 07:23:46;;;;;;;2.13;1.40;;;17.40;63.40;;;;;;5075596;28;20263;-69
2021/10/16 07:26:11;;;;;;;1.77;1.33;;;17.50;63.60;;;;;;5074361;28;20220;-69
2021/10/16 07:28:37;;;;;;;2.28;1.50;;;17.40;63.50;;;;;;5075428;28;20170;-70
2021/10/16 07:31:02;;;;;;;2.63;1.40;;;17.40;63.60;;;;;;5074978;28;20628;-72
2021/10/16 07:33:28;;;;;;;2.35;1.77;;;17.50;63.80;;;;;;5074990;28;20193;-77
2021/10/16 07:35:53;;;;;;;1.30;1.17;;;17.50;63.80;;;;;;5075226;28;20183;-67
2021/10/16 07:38:19;;;;;;;3.33;1.70;;;17.50;63.80;;;;;;5075416;28;20177;-68
2021/10/16 07:40:44;;;;;;;4.35;1.23;;;17.50;64.10;;;;;;5074479;28;20231;-67
2021/10/16 07:43:11;;;;;;;2.28;1.23;;;17.50;63.90;;;;;;5074807;28;20688;-68
2021/10/16 07:45:36;;;;;;;3.60;1.73;;;17.50;64.00;;;;;;5075146;28;20175;-68
2021/10/16 07:48:02;;;;;;;4.22;1.50;;;17.50;63.80;;;;;;5074107;28;20600;-68
2021/10/16 07:50:27;;;;;;;3.85;1.80;;;17.50;63.90;;;;;;5066564;28;20167;-67
2021/10/16 07:52:53;;;;;;;2.58;1.60;;;17.50;63.90;;;;;;5055975;28;20183;-67
2021/10/16 07:55:20;;;;;;;4.75;2.25;;;17.50;63.80;;;;;;5074024;28;20641;-66
2021/10/16 07:57:45;;;;;;;4.75;2.20;;;17.50;63.90;;;;;;5075110;28;20206;-66
2021/10/16 08:00:11;;;;;;;3.72;1.80;;;17.50;63.90;;;;;;5074487;28;20240;-66
2021/10/16 08:02:36;;;;;;;2.83;1.40;;;17.50;63.80;;;;;;5074044;28;20252;-67
2021/10/16 08:05:02;;;;;;;4.18;1.58;;;17.50;63.80;;;;;;5070120;28;20179;-67
2021/10/16 08:07:28;;;;;;;4.00;2.00;;;17.50;63.90;;;;;;5054865;28;20175;-67
2021/10/16 08:09:54;;;;;;;4.55;1.60;;;17.60;64.10;;;;;;5053782;28;20172;-66
2021/10/16 08:12:19;;;;;;;3.13;1.50;;;17.60;63.80;;;;;;5054450;28;20530;-69
2021/10/16 08:14:45;;;;;;;6.00;1.80;;;17.70;64.20;;;;;;5052634;28;20180;-75
2021/10/16 08:17:10;;;;;;;3.17;1.85;;;17.70;64.00;;;;;;5054715;28;20179;-65
2021/10/16 08:19:36;;;;;;;3.35;1.50;;;17.80;64.60;;;;;;5054409;28;20175;-67
2021/10/16 08:22:01;;;;;;;3.00;1.80;;;17.80;63.90;;;;;;5053480;28;20534;-67
2021/10/16 08:24:27;;;;;;;3.17;1.60;;;17.80;64.00;;;;;;5054422;28;20203;-66
2021/10/16 08:26:52;;;;;;;3.60;2.13;;;17.80;64.00;;;;;;5053654;28;20309;-66
2021/10/16 08:29:18;;;;;;;5.32;1.83;;;17.80;64.00;;;;;;5053451;28;20171;-63
2021/10/16 08:31:43;;;;;;;7.20;2.08;;;17.80;64.20;;;;;;5054282;28;20167;-64
2021/10/16 08:34:09;;;;;;;4.65;2.08;;;17.80;64.50;;;;;;5053769;28;20580;-65
2021/10/16 08:36:34;;;;;;;2.92;1.77;;;17.80;64.50;;;;;;5053492;28;20190;-65
2021/10/16 08:39:00;;;;;;;3.63;1.50;;;17.80;64.40;;;;;;5053817;28;20179;-66
2021/10/16 08:41:25;;;;;;;4.38;2.00;;;17.80;64.30;;;;;;5054032;28;20633;-74
2021/10/16 08:43:51;;;;;;;6.75;2.70;;;17.80;64.30;;;;;;5052841;28;20263;-70
2021/10/16 08:46:16;;;;;;;4.30;2.00;;;17.90;64.50;;;;;;5054200;28;20172;-72
2021/10/16 08:48:42;;;;;;;4.90;1.83;;;17.80;64.40;;;;;;5054094;28;20182;-72
2021/10/16 08:51:08;;;;;;;3.55;1.83;;;17.90;64.40;;;;;;5052848;28;20208;-75
2021/10/16 08:53:34;;;;;;;3.92;1.98;;;18.00;64.40;;;;;;5052853;28;20258;-70
2021/10/16 08:56:04;;;;;;;6.85;1.60;;;18.10;64.40;;;;;;5052710;28;20639;-73
2021/10/16 08:58:33;;;;;;;6.75;2.50;;;18.10;65.00;;;;;;5051946;28;20178;-75
2021/10/16 09:01:00;;;;;;;4.97;1.90;;;18.20;64.20;;;;;;5052868;28;20178;-73
2021/10/16 09:03:33;;;;;;;4.28;1.85;;;18.30;64.30;;;;;;5052699;28;20218;-73
2021/10/16 09:06:11;;;;;;;3.13;1.65;;;18.40;63.90;;;;;;5050132;28;20201;-71
2021/10/16 09:08:40;;;;;;;3.35;1.60;;;18.60;63.50;;;;;;5050418;28;20175;-71
2021/10/16 09:11:12;;;;;;;4.50;1.65;;;18.70;63.10;;;;;;5051833;28;20528;-70
2021/10/16 09:13:45;;;;;;;3.95;1.95;;;18.90;62.60;;;;;;5050508;28;20251;-69
2021/10/16 09:16:24;;;;;;;3.53;1.70;;;19.10;62.30;;;;;;5052125;28;20186;-71
2021/10/16 09:19:00;;;;;;;6.38;1.85;;;19.20;62.00;;;;;;5050913;28;20170;-72
2021/10/16 09:21:27;;;;;;;3.42;1.73;;;19.20;61.90;;;;;;5051105;28;20175;-72
2021/10/16 09:24:06;;;;;;;2.47;1.60;;;19.30;61.90;;;;;;5051991;28;20219;-73
2021/10/16 09:26:32;;;;;;;4.97;1.77;;;19.30;61.80;;;;;;5048852;28;20215;-72
2021/10/16 09:28:59;;;;;;;2.85;1.60;;;19.40;61.90;;;;;;5052563;28;20186;-72
2021/10/16 09:31:41;;;;;;;3.78;1.90;;;19.40;61.70;;;;;;5052614;28;20183;-72
2021/10/16 09:34:07;;;;;;;3.97;1.60;;;19.40;61.80;;;;;;5051414;28;20252;-72
2021/10/16 09:36:34;;;;;;;3.10;1.60;;;19.50;61.70;;;;;;5052115;28;20226;-73
2021/10/16 09:39:00;;;;;;;2.85;1.65;;;19.50;61.80;;;;;;5048464;28;20182;-73
2021/10/16 09:41:31;;;;;;;2.33;1.50;;;19.50;61.80;;;;;;5051687;28;20179;-74
2021/10/16 09:43:57;;;;;;;9.80;1.92;;;19.40;61.90;;;;;;5051184;28;20210;-74
2021/10/16 09:46:23;;;;;;;3.22;1.63;;;19.40;62.00;;;;;;5050777;28;20185;-74
2021/10/16 09:48:49;;;;;;;3.85;1.60;;;19.40;62.10;;;;;;5051277;28;20587;-73
2021/10/16 09:51:15;;;;;;;5.47;1.85;;;19.30;62.20;;;;;;5051623;28;20242;-74
2021/10/16 09:53:53;;;;;;;3.00;1.52;;;19.30;62.40;;;;;;5050474;28;20286;-72
2021/10/16 09:56:19;;;;;;;5.82;2.10;;;19.30;62.50;;;;;;5047460;28;20228;-73
2021/10/16 09:58:47;;;;;;;2.95;1.38;;;19.20;62.60;;;;;;5051230;28;20181;-72
2021/10/16 10:01:13;;;;;;;3.05;1.48;;;19.20;62.60;;;;;;5050925;28;20183;-72
2021/10/16 10:03:42;;;;;;;2.08;1.52;;;19.10;62.80;;;;;;5051143;28;20198;-74
2021/10/16 10:06:14;;;;;;;2.00;1.30;;;19.10;63.00;;;;;;5050975;28;20211;-71
2021/10/16 10:08:39;;;;;;;3.22;1.70;;;19.10;63.10;;;;;;5048531;28;20198;-72
2021/10/16 10:11:05;;;;;;;2.10;1.38;;;19.00;64.10;;;;;;5049940;28;20621;-70
2021/10/16 10:13:30;;;;;;;2.85;1.58;;;18.90;63.30;;;;;;5051487;28;20221;-72
2021/10/16 10:15:56;;;;;;;3.28;1.80;;;18.90;63.40;;;;;;5049850;28;20554;-70
2021/10/16 10:21:05;;;;;;;5.53;2.10;;;18.90;63.60;;;;;;5051242;28;20178;-67
2021/10/16 10:23:31;;;;;;;5.43;1.63;;;18.80;63.60;;;;;;5050477;28;20199;-66
2021/10/16 10:26:22;;;;;;;4.35;2.35;;;18.70;63.40;;;;;;5051972;28;20246;-67
2021/10/16 10:28:54;;;;;;;5.68;1.70;;;18.70;63.50;;;;;;5051538;28;20179;-74
2021/10/16 10:31:45;;;;;;;4.55;1.73;;;18.60;63.60;;;;;;5052575;28;20179;-74
2021/10/16 10:34:17;;;;;;;4.40;2.22;;;18.60;63.60;;;;;;5051958;28;20185;-75
2021/10/16 10:36:51;;;;;;;7.45;2.30;;;18.60;63.60;;;;;;5052034;28;20183;-77
2021/10/16 10:39:46;;;;;;;4.90;2.00;;;18.60;64.60;;;;;;5056431;28;20175;-75
2021/10/16 10:42:12;;;;;;;3.67;1.90;;;18.60;63.60;;;;;;5055314;28;20245;-76
2021/10/16 10:44:44;;;;;;;5.30;1.60;;;18.70;63.70;;;;;;5055759;28;20175;-73
2021/10/16 10:47:32;;;;;;;3.72;1.60;;;18.70;63.60;;;;;;5055929;28;20182;-75
2021/10/16 10:50:04;;;;;;;6.22;2.10;;;18.80;63.60;;;;;;5055234;28;20187;-74
2021/10/16 10:53:04;;;;;;;4.55;1.85;;;18.80;63.50;;;;;;5056346;28;20279;-66
2021/10/16 10:55:30;;;;;;;5.40;1.88;;;18.80;63.40;;;;;;5056331;28;20190;-65
2021/10/16 10:58:01;;;;;;;4.82;1.92;;;18.80;63.60;;;;;;5055042;28;20171;-77
2021/10/16 11:00:31;;;;;;;7.07;1.88;;;18.80;63.40;;;;;;5056364;28;20174;-76
2021/10/16 11:02:57;;;;;;;7.82;2.35;;;18.70;63.40;;;;;;5055743;28;20685;-77
2021/10/16 11:05:31;;;;;;;5.30;1.80;;;18.70;63.30;;;;;;5055160;28;20237;-77
2021/10/16 11:08:08;;;;;;;4.22;2.05;;;18.70;63.30;;;;;;5055637;28;20257;-66
2021/10/16 11:10:34;;;;;;;3.65;1.70;;;18.70;63.40;;;;;;5055294;28;20258;-66
2021/10/16 11:13:10;;;;;;;9.07;2.35;;;18.70;63.30;;;;;;5055634;28;20259;-67
2021/10/16 11:15:35;;;;;;;4.57;2.20;;;18.70;63.30;;;;;;5054733;28;20178;-75
2021/10/16 11:18:00;;;;;;;10.05;2.72;;;18.60;62.80;;;;;;5054576;28;20190;-76
2021/10/16 11:20:29;;;;;;;6.93;2.25;;;18.60;62.20;;;;;;5046193;28;20638;-76
2021/10/16 11:22:55;;;;;;;7.93;2.38;;;18.60;61.90;;;;;;5055365;28;20260;-77
2021/10/16 11:25:25;;;;;;;6.72;2.17;;;18.60;61.90;;;;;;5054738;28;20179;-76
2021/10/16 11:28:10;;;;;;;7.15;2.50;;;18.60;62.00;;;;;;5072910;28;20702;-75
2021/10/16 11:30:40;;;;;;;4.90;2.17;;;18.60;62.10;;;;;;5075375;28;20178;-77
2021/10/16 11:33:13;;;;;;;11.70;2.67;;;18.60;62.10;;;;;;5074538;28;20174;-76
2021/10/16 11:35:41;;;;;;;6.72;2.03;;;18.60;62.20;;;;;;5062898;28;20233;-76
2021/10/16 11:38:07;;;;;;;6.32;2.40;;;18.60;62.20;;;;;;5055172;28;20179;-77
2021/10/16 11:40:33;;;;;;;6.03;2.20;;;18.60;62.30;;;;;;5054446;28;20171;-77
2021/10/16 11:43:03;;;;;;;6.75;2.13;;;18.60;62.30;;;;;;5054667;28;20221;-75
2021/10/16 11:45:31;;;;;;;8.43;2.72;;;18.60;62.40;;;;;;5054982;28;20629;-77
2021/10/16 11:47:59;;;;;;;4.55;2.08;;;18.60;62.40;;;;;;5054359;28;20187;-75
2021/10/16 11:50:29;;;;;;;6.50;2.20;;;18.60;62.40;;;;;;5054836;28;20668;-77
2021/10/16 11:53:21;;;;;;;8.18;2.55;;;18.70;62.40;;;;;;5067340;28;21036;-75
2021/10/16 11:55:54;;;;;;;6.72;2.20;;;18.70;62.40;;;;;;5075121;28;20185;-76
2021/10/16 11:58:24;;;;;;;4.68;2.03;;;18.70;62.30;;;;;;5075191;28;20693;-77
2021/10/16 12:00:51;;;;;;;3.33;2.00;;;18.70;62.30;;;;;;5073872;28;20182;-77
2021/10/16 12:03:27;;;;;;;5.35;2.08;;;18.70;62.40;;;;;;5074370;28;20305;-76
2021/10/16 12:05:53;;;;;;;4.10;1.73;;;18.70;62.50;;;;;;5074770;28;20261;-75
2021/10/16 12:08:28;;;;;;;2.85;1.45;;;18.70;62.50;;;;;;5072919;28;20261;-74
2021/10/16 12:11:03;;;;;;;3.42;1.75;;;18.70;62.50;;;;;;5074671;28;20170;-74
2021/10/16 12:13:31;;;;;;;6.07;2.70;;;18.70;62.70;;;;;;5074924;28;20731;-75
2021/10/16 12:15:57;;;;;;;5.82;2.00;;;18.70;62.70;;;;;;5073659;28;20174;-75
2021/10/16 12:18:25;;;;;;;3.80;1.83;;;18.70;62.70;;;;;;5074524;28;20256;-75
2021/10/16 12:20:55;;;;;;;4.85;1.95;;;18.70;62.70;;;;;;5073739;28;20222;-75
2021/10/16 12:23:21;;;;;;;4.10;1.70;;;18.70;63.60;;;;;;5074358;28;20710;-76
2021/10/16 12:25:54;;;;;;;4.45;1.90;;;18.70;62.80;;;;;;5071245;28;20250;-76
2021/10/16 12:28:20;;;;;;;2.90;1.67;;;18.70;62.70;;;;;;5053844;28;20183;-76
2021/10/16 12:31:06;;;;;;;5.50;2.58;;;18.70;62.80;;;;;;5054257;28;20198;-74
2021/10/16 12:33:31;;;;;;;3.50;2.00;;;18.70;62.80;;;;;;5054515;28;20191;-76
2021/10/16 12:35:58;;;;;;;5.13;1.90;;;18.70;63.80;;;;;;5053540;28;20179;-76
2021/10/16 12:38:25;;;;;;;4.07;1.55;;;18.60;62.90;;;;;;5054309;28;20209;-76
2021/10/16 12:40:51;;;;;;;4.82;1.70;;;18.60;63.00;;;;;;5053860;28;20175;-76
2021/10/16 12:43:28;;;;;;;3.70;1.90;;;18.60;63.00;;;;;;5053500;28;20213;-77
2021/10/16 12:45:54;;;;;;;6.18;2.00;;;18.60;63.10;;;;;;5053946;28;20590;-76
2021/10/16 12:48:35;;;;;;;5.35;1.80;;;18.60;63.10;;;;;;5054251;28;20175;-76
2021/10/16 12:51:02;;;;;;;2.22;1.52;;;18.60;63.20;;;;;;5052995;28;20297;-75